sensor_id;sensor_type;location;lat;lon;timestamp;pressure;altitude;pressure_sealevel;temperature;humidity
6829;BME280;17930;48.592;8.868;2023-04-04T00:01:09;97504.47;;;0.29;100.00
6829;BME280;17930;48.592;8.868;2023-04-04T00:03:37;97498.97;;;0.32;100.00
6829;BME280;17930;48.592;8.868;2023-04-04T00:06:03;97503.22;;;0.18;100.00
6829;BME280;17930;48.592;8.868;2023-04-04T00:08:30;97502.50;;;0.24;100.00
6829;BME280;17930;48.592;8.868;2023-04-04T00:10:58;97500.84;;;0.17;100.00
6829;BME280;17930;48.592;8.868;2023-04-04T00:13:25;97498.94;;;0.25;100.00
6829;BME280;17930;48.592;8.868;2023-04-04T00:15:52;97496.16;;;0.20;100.00
6829;BME280;17930;48.592;8.868;2023-04-04T00:18:20;97494.72;;;0.11;100.00
6829;BME280;17930;48.592;8.868;2023-04-04T00:20:47;97492.63;;;0.21;100.00
6829;BME280;17930;48.592;8.868;2023-04-04T00:23:13;97484.22;;;0.06;100.00
6829;BME280;17930;48.592;8.868;2023-04-04T00:25:40;97484.66;;;0.10;100.00
6829;BME280;17930;48.592;8.868;2023-04-04T00:28:08;97487.38;;;0.08;100.00
6829;BME280;17930;48.592;8.868;2023-04-04T00:30:34;97484.78;;;0.02;100.00
6829;BME280;17930;48.592;8.868;2023-04-04T00:33:01;97480.25;;;0.04;100.00
6829;BME280;17930;48.592;8.868;2023-04-04T00:35:28;97488.31;;;-0.05;100.00
6829;BME280;17930;48.592;8.868;2023-04-04T00:37:55;97479.88;;;0.07;100.00
6829;BME280;17930;48.592;8.868;2023-04-04T00:40:24;97479.22;;;-0.08;100.00
6829;BME280;17930;48.592;8.868;2023-04-04T00:42:59;97481.88;;;-0.22;100.00
6829;BME280;17930;48.592;8.868;2023-04-04T00:45:28;97477.16;;;-0.46;100.00
6829;BME280;17930;48.592;8.868;2023-04-04T00:47:56;97476.41;;;-0.40;100.00
6829;BME280;17930;48.592;8.868;2023-04-04T00:50:23;97483.34;;;-0.34;100.00
6829;BME280;17930;48.592;8.868;2023-04-04T00:52:50;97479.59;;;-0.38;100.00
6829;BME280;17930;48.592;8.868;2023-04-04T00:55:17;97481.81;;;-0.56;100.00
6829;BME280;17930;48.592;8.868;2023-04-04T00:57:45;97475.84;;;-0.63;100.00
6829;BME280;17930;48.592;8.868;2023-04-04T01:00:12;97481.19;;;-0.58;100.00
6829;BME280;17930;48.592;8.868;2023-04-04T01:02:41;97475.34;;;-0.73;100.00
6829;BME280;17930;48.592;8.868;2023-04-04T01:05:08;97479.63;;;-0.80;100.00
6829;BME280;17930;48.592;8.868;2023-04-04T01:07:35;97474.97;;;-0.70;100.00
6829;BME280;17930;48.592;8.868;2023-04-04T01:10:02;97476.31;;;-0.74;100.00
6829;BME280;17930;48.592;8.868;2023-04-04T01:12:29;97467.41;;;-0.78;100.00
6829;BME280;17930;48.592;8.868;2023-04-04T01:14:56;97469.94;;;-0.84;100.00
6829;BME280;17930;48.592;8.868;2023-04-04T01:17:23;97466.22;;;-0.82;100.00
6829;BME280;17930;48.592;8.868;2023-04-04T01:20:00;97469.47;;;-0.73;100.00
6829;BME280;17930;48.592;8.868;2023-04-04T01:22:29;97462.56;;;-0.73;100.00
6829;BME280;17930;48.592;8.868;2023-04-04T01:24:58;97468.16;;;-0.84;100.00
6829;BME280;17930;48.592;8.868;2023-04-04T01:27:27;97461.69;;;-0.80;100.00
6829;BME280;17930;48.592;8.868;2023-04-04T01:29:54;97471.69;;;-0.64;100.00
6829;BME280;17930;48.592;8.868;2023-04-04T01:32:29;97460.47;;;-0.63;100.00
6829;BME280;17930;48.592;8.868;2023-04-04T01:35:03;97467.56;;;-0.65;100.00
6829;BME280;17930;48.592;8.868;2023-04-04T01:37:35;97463.63;;;-0.61;100.00
6829;BME280;17930;48.592;8.868;2023-04-04T01:40:08;97459.25;;;-0.67;100.00
6829;BME280;17930;48.592;8.868;2023-04-04T01:42:38;97456.56;;;-0.59;100.00
6829;BME280;17930;48.592;8.868;2023-04-04T01:45:06;97451.81;;;-0.62;100.00
6829;BME280;17930;48.592;8.868;2023-04-04T01:47:37;97459.25;;;-0.67;100.00
6829;BME280;17930;48.592;8.868;2023-04-04T01:50:05;97462.31;;;-0.78;100.00
6829;BME280;17930;48.592;8.868;2023-04-04T01:52:32;97468.41;;;-0.79;100.00
6829;BME280;17930;48.592;8.868;2023-04-04T01:54:58;97461.22;;;-0.69;100.00
6829;BME280;17930;48.592;8.868;2023-04-04T01:57:25;97457.19;;;-0.78;100.00
6829;BME280;17930;48.592;8.868;2023-04-04T01:59:53;97462.94;;;-0.76;100.00
6829;BME280;17930;48.592;8.868;2023-04-04T02:02:20;97457.44;;;-0.73;100.00
6829;BME280;17930;48.592;8.868;2023-04-04T02:04:47;97453.16;;;-0.87;100.00
6829;BME280;17930;48.592;8.868;2023-04-04T02:07:14;97464.50;;;-0.96;100.00
6829;BME280;17930;48.592;8.868;2023-04-04T02:09:40;97462.44;;;-1.06;100.00
6829;BME280;17930;48.592;8.868;2023-04-04T02:12:07;97467.91;;;-1.09;100.00
6829;BME280;17930;48.592;8.868;2023-04-04T02:14:34;97464.81;;;-1.05;100.00
6829;BME280;17930;48.592;8.868;2023-04-04T02:17:02;97463.41;;;-1.07;100.00
6829;BME280;17930;48.592;8.868;2023-04-04T02:19:28;97467.50;;;-1.13;100.00
6829;BME280;17930;48.592;8.868;2023-04-04T02:21:58;97468.19;;;-1.04;100.00
6829;BME280;17930;48.592;8.868;2023-04-04T02:24:25;97463.28;;;-1.00;100.00
6829;BME280;17930;48.592;8.868;2023-04-04T02:26:51;97461.78;;;-0.94;100.00
6829;BME280;17930;48.592;8.868;2023-04-04T02:29:18;97460.38;;;-0.97;100.00
6829;BME280;17930;48.592;8.868;2023-04-04T02:31:45;97456.16;;;-1.04;100.00
6829;BME280;17930;48.592;8.868;2023-04-04T02:34:13;97457.69;;;-1.09;100.00
6829;BME280;17930;48.592;8.868;2023-04-04T02:36:40;97461.56;;;-1.13;100.00
6829;BME280;17930;48.592;8.868;2023-04-04T02:39:07;97457.75;;;-1.03;100.00
6829;BME280;17930;48.592;8.868;2023-04-04T02:41:33;97456.94;;;-1.03;100.00
6829;BME280;17930;48.592;8.868;2023-04-04T02:44:00;97455.78;;;-1.01;100.00
6829;BME280;17930;48.592;8.868;2023-04-04T02:46:27;97445.63;;;-0.95;100.00
6829;BME280;17930;48.592;8.868;2023-04-04T02:48:53;97450.75;;;-0.95;100.00
6829;BME280;17930;48.592;8.868;2023-04-04T02:51:22;97453.72;;;-1.12;100.00
6829;BME280;17930;48.592;8.868;2023-04-04T02:53:49;97445.63;;;-1.15;100.00
6829;BME280;17930;48.592;8.868;2023-04-04T02:56:15;97448.97;;;-1.15;100.00
6829;BME280;17930;48.592;8.868;2023-04-04T02:58:42;97449.16;;;-1.16;100.00
6829;BME280;17930;48.592;8.868;2023-04-04T03:01:09;97444.22;;;-1.18;100.00
6829;BME280;17930;48.592;8.868;2023-04-04T03:03:35;97446.94;;;-1.19;100.00
6829;BME280;17930;48.592;8.868;2023-04-04T03:06:02;97448.41;;;-1.31;100.00
6829;BME280;17930;48.592;8.868;2023-04-04T03:08:30;97443.47;;;-1.33;100.00
6829;BME280;17930;48.592;8.868;2023-04-04T03:10:57;97439.66;;;-1.22;100.00
6829;BME280;17930;48.592;8.868;2023-04-04T03:13:23;97446.78;;;-1.18;100.00
6829;BME280;17930;48.592;8.868;2023-04-04T03:15:50;97439.19;;;-1.11;100.00
6829;BME280;17930;48.592;8.868;2023-04-04T03:18:23;97446.59;;;-1.16;100.00
6829;BME280;17930;48.592;8.868;2023-04-04T03:20:49;97442.44;;;-1.17;100.00
6829;BME280;17930;48.592;8.868;2023-04-04T03:23:16;97440.97;;;-1.26;100.00
6829;BME280;17930;48.592;8.868;2023-04-04T03:25:44;97441.34;;;-1.29;100.00
6829;BME280;17930;48.592;8.868;2023-04-04T03:28:11;97444.81;;;-1.37;100.00
6829;BME280;17930;48.592;8.868;2023-04-04T03:30:38;97445.97;;;-1.39;100.00
6829;BME280;17930;48.592;8.868;2023-04-04T03:33:05;97440.34;;;-1.49;100.00
6829;BME280;17930;48.592;8.868;2023-04-04T03:35:36;97438.75;;;-1.50;100.00
6829;BME280;17930;48.592;8.868;2023-04-04T03:38:03;97436.81;;;-1.48;100.00
6829;BME280;17930;48.592;8.868;2023-04-04T03:40:29;97435.22;;;-1.49;100.00
6829;BME280;17930;48.592;8.868;2023-04-04T03:42:57;97437.09;;;-1.57;100.00
6829;BME280;17930;48.592;8.868;2023-04-04T03:45:25;97444.78;;;-1.72;100.00
6829;BME280;17930;48.592;8.868;2023-04-04T03:47:51;97444.84;;;-1.65;100.00
6829;BME280;17930;48.592;8.868;2023-04-04T03:50:18;97440.19;;;-1.62;100.00
6829;BME280;17930;48.592;8.868;2023-04-04T03:52:45;97442.13;;;-1.64;100.00
6829;BME280;17930;48.592;8.868;2023-04-04T03:55:12;97442.66;;;-1.68;100.00
6829;BME280;17930;48.592;8.868;2023-04-04T03:57:39;97437.22;;;-1.80;100.00
6829;BME280;17930;48.592;8.868;2023-04-04T04:00:08;97441.91;;;-1.98;100.00
6829;BME280;17930;48.592;8.868;2023-04-04T04:02:35;97441.38;;;-2.07;100.00
6829;BME280;17930;48.592;8.868;2023-04-04T04:05:02;97446.75;;;-2.17;100.00
6829;BME280;17930;48.592;8.868;2023-04-04T04:07:28;97449.41;;;-2.10;100.00
6829;BME280;17930;48.592;8.868;2023-04-04T04:09:55;97439.25;;;-2.04;100.00
6829;BME280;17930;48.592;8.868;2023-04-04T04:12:22;97441.38;;;-1.93;100.00
6829;BME280;17930;48.592;8.868;2023-04-04T04:14:50;97443.91;;;-1.79;100.00
6829;BME280;17930;48.592;8.868;2023-04-04T04:17:18;97441.09;;;-1.84;100.00
6829;BME280;17930;48.592;8.868;2023-04-04T04:19:45;97444.28;;;-1.82;100.00
6829;BME280;17930;48.592;8.868;2023-04-04T04:22:12;97453.25;;;-1.86;100.00
6829;BME280;17930;48.592;8.868;2023-04-04T04:24:38;97445.34;;;-1.91;100.00
6829;BME280;17930;48.592;8.868;2023-04-04T04:27:05;97443.41;;;-1.89;100.00
6829;BME280;17930;48.592;8.868;2023-04-04T04:29:32;97449.41;;;-1.96;100.00
6829;BME280;17930;48.592;8.868;2023-04-04T04:31:58;97440.91;;;-1.97;100.00
6829;BME280;17930;48.592;8.868;2023-04-04T04:34:27;97444.81;;;-2.01;100.00
6829;BME280;17930;48.592;8.868;2023-04-04T04:36:53;97433.72;;;-1.93;100.00
6829;BME280;17930;48.592;8.868;2023-04-04T04:39:20;97436.81;;;-1.98;100.00
6829;BME280;17930;48.592;8.868;2023-04-04T04:41:47;97444.13;;;-2.09;100.00
6829;BME280;17930;48.592;8.868;2023-04-04T04:44:13;97443.59;;;-2.04;100.00
6829;BME280;17930;48.592;8.868;2023-04-04T04:46:40;97444.09;;;-1.95;100.00
6829;BME280;17930;48.592;8.868;2023-04-04T04:49:07;97441.38;;;-1.93;100.00
6829;BME280;17930;48.592;8.868;2023-04-04T04:51:35;97450.53;;;-1.99;100.00
6829;BME280;17930;48.592;8.868;2023-04-04T04:54:03;97445.06;;;-1.96;100.00
6829;BME280;17930;48.592;8.868;2023-04-04T04:56:30;97450.09;;;-1.88;100.00
6829;BME280;17930;48.592;8.868;2023-04-04T04:58:58;97443.63;;;-1.84;100.00
6829;BME280;17930;48.592;8.868;2023-04-04T05:01:25;97449.97;;;-1.80;100.00
6829;BME280;17930;48.592;8.868;2023-04-04T05:03:51;97447.19;;;-1.85;100.00
6829;BME280;17930;48.592;8.868;2023-04-04T05:06:18;97447.44;;;-1.80;100.00
6829;BME280;17930;48.592;8.868;2023-04-04T05:08:46;97452.53;;;-1.80;100.00
6829;BME280;17930;48.592;8.868;2023-04-04T05:11:13;97453.53;;;-1.81;100.00
6829;BME280;17930;48.592;8.868;2023-04-04T05:13:39;97452.69;;;-1.67;100.00
6829;BME280;17930;48.592;8.868;2023-04-04T05:16:06;97455.38;;;-1.75;100.00
6829;BME280;17930;48.592;8.868;2023-04-04T05:18:33;97457.47;;;-1.78;100.00
6829;BME280;17930;48.592;8.868;2023-04-04T05:20:59;97454.84;;;-1.85;100.00
6829;BME280;17930;48.592;8.868;2023-04-04T05:23:26;97456.94;;;-1.74;100.00
6829;BME280;17930;48.592;8.868;2023-04-04T05:25:55;97458.44;;;-1.65;100.00
6829;BME280;17930;48.592;8.868;2023-04-04T05:28:21;97462.22;;;-1.61;100.00
6829;BME280;17930;48.592;8.868;2023-04-04T05:30:48;97460.28;;;-1.59;100.00
6829;BME280;17930;48.592;8.868;2023-04-04T05:33:15;97459.28;;;-1.44;100.00
6829;BME280;17930;48.592;8.868;2023-04-04T05:35:41;97457.06;;;-1.32;100.00
6829;BME280;17930;48.592;8.868;2023-04-04T05:38:08;97459.19;;;-1.15;100.00
6829;BME280;17930;48.592;8.868;2023-04-04T05:40:35;97459.41;;;-0.96;100.00
6829;BME280;17930;48.592;8.868;2023-04-04T05:43:03;97458.19;;;-0.79;100.00
6829;BME280;17930;48.592;8.868;2023-04-04T05:45:30;97453.38;;;-0.61;100.00
6829;BME280;17930;48.592;8.868;2023-04-04T05:47:56;97461.69;;;-0.59;100.00
6829;BME280;17930;48.592;8.868;2023-04-04T05:50:23;97465.78;;;-0.37;100.00
6829;BME280;17930;48.592;8.868;2023-04-04T05:52:52;97462.44;;;-0.10;100.00
6829;BME280;17930;48.592;8.868;2023-04-04T05:55:19;97459.03;;;0.16;100.00
6829;BME280;17930;48.592;8.868;2023-04-04T05:57:46;97466.41;;;0.32;100.00
6829;BME280;17930;48.592;8.868;2023-04-04T06:00:17;97464.78;;;0.58;100.00
6829;BME280;17930;48.592;8.868;2023-04-04T06:02:44;97471.38;;;0.87;100.00
6829;BME280;17930;48.592;8.868;2023-04-04T06:05:11;97472.63;;;1.16;100.00
6829;BME280;17930;48.592;8.868;2023-04-04T06:07:39;97470.50;;;1.46;100.00
6829;BME280;17930;48.592;8.868;2023-04-04T06:10:07;97472.06;;;1.66;100.00
6829;BME280;17930;48.592;8.868;2023-04-04T06:12:33;97470.88;;;1.75;100.00
6829;BME280;17930;48.592;8.868;2023-04-04T06:15:04;97467.69;;;1.99;100.00
6829;BME280;17930;48.592;8.868;2023-04-04T06:17:32;97465.72;;;1.94;100.00
6829;BME280;17930;48.592;8.868;2023-04-04T06:19:59;97458.59;;;2.03;100.00
6829;BME280;17930;48.592;8.868;2023-04-04T06:22:26;97462.88;;;2.21;100.00
6829;BME280;17930;48.592;8.868;2023-04-04T06:24:52;97467.63;;;2.31;100.00
6829;BME280;17930;48.592;8.868;2023-04-04T06:27:19;97470.72;;;2.52;100.00
6829;BME280;17930;48.592;8.868;2023-04-04T06:29:48;97460.16;;;2.73;100.00
6829;BME280;17930;48.592;8.868;2023-04-04T06:32:15;97455.94;;;3.15;100.00
6829;BME280;17930;48.592;8.868;2023-04-04T06:34:43;97458.34;;;3.10;100.00
6829;BME280;17930;48.592;8.868;2023-04-04T06:37:10;97460.88;;;3.17;100.00
6829;BME280;17930;48.592;8.868;2023-04-04T06:39:37;97454.13;;;3.71;100.00
6829;BME280;17930;48.592;8.868;2023-04-04T06:42:03;97459.47;;;4.36;100.00
6829;BME280;17930;48.592;8.868;2023-04-04T06:44:30;97459.88;;;4.68;100.00
6829;BME280;17930;48.592;8.868;2023-04-04T06:47:00;97455.16;;;4.65;100.00
6829;BME280;17930;48.592;8.868;2023-04-04T06:49:26;97449.16;;;4.83;100.00
6829;BME280;17930;48.592;8.868;2023-04-04T06:51:55;97450.78;;;5.24;100.00
6829;BME280;17930;48.592;8.868;2023-04-04T06:54:23;97446.75;;;5.28;100.00
6829;BME280;17930;48.592;8.868;2023-04-04T06:56:50;97449.72;;;5.43;100.00
6829;BME280;17930;48.592;8.868;2023-04-04T06:59:18;97447.50;;;5.17;98.79
6829;BME280;17930;48.592;8.868;2023-04-04T07:01:45;97445.84;;;5.23;98.74
6829;BME280;17930;48.592;8.868;2023-04-04T07:04:11;97443.66;;;5.72;96.73
6829;BME280;17930;48.592;8.868;2023-04-04T07:06:38;97439.88;;;5.74;93.74
6829;BME280;17930;48.592;8.868;2023-04-04T07:09:06;97442.25;;;5.35;92.23
6829;BME280;17930;48.592;8.868;2023-04-04T07:11:33;97436.56;;;5.56;91.43
6829;BME280;17930;48.592;8.868;2023-04-04T07:13:59;97425.94;;;6.10;91.66
6829;BME280;17930;48.592;8.868;2023-04-04T07:16:26;97432.16;;;6.59;88.10
6829;BME280;17930;48.592;8.868;2023-04-04T07:18:53;97430.75;;;6.79;83.52
6829;BME280;17930;48.592;8.868;2023-04-04T07:21:19;97424.97;;;7.49;84.58
6829;BME280;17930;48.592;8.868;2023-04-04T07:23:49;97427.56;;;7.49;79.81
6829;BME280;17930;48.592;8.868;2023-04-04T07:26:17;97431.50;;;7.84;79.55
6829;BME280;17930;48.592;8.868;2023-04-04T07:28:43;97427.47;;;8.47;77.60
6829;BME280;17930;48.592;8.868;2023-04-04T07:31:10;97427.06;;;8.55;74.09
6829;BME280;17930;48.592;8.868;2023-04-04T07:33:39;97431.13;;;8.46;71.42
6829;BME280;17930;48.592;8.868;2023-04-04T07:36:05;97423.53;;;7.91;73.90
6829;BME280;17930;48.592;8.868;2023-04-04T07:38:32;97424.63;;;8.70;72.35
6829;BME280;17930;48.592;8.868;2023-04-04T07:40:59;97425.88;;;8.09;71.44
6829;BME280;17930;48.592;8.868;2023-04-04T07:43:27;97420.84;;;8.02;69.78
6829;BME280;17930;48.592;8.868;2023-04-04T07:45:54;97424.47;;;8.17;68.82
6829;BME280;17930;48.592;8.868;2023-04-04T07:48:21;97426.75;;;8.94;68.21
6829;BME280;17930;48.592;8.868;2023-04-04T07:50:48;97424.66;;;9.80;67.79
6829;BME280;17930;48.592;8.868;2023-04-04T07:53:15;97422.84;;;8.97;65.20
6829;BME280;17930;48.592;8.868;2023-04-04T07:55:41;97420.97;;;8.92;67.75
6829;BME280;17930;48.592;8.868;2023-04-04T07:58:08;97420.06;;;9.92;67.84
6829;BME280;17930;48.592;8.868;2023-04-04T08:00:36;97433.53;;;9.21;63.60
6829;BME280;17930;48.592;8.868;2023-04-04T08:03:03;97414.78;;;9.19;67.71
6829;BME280;17930;48.592;8.868;2023-04-04T08:05:29;97421.72;;;9.40;64.04
6829;BME280;17930;48.592;8.868;2023-04-04T08:07:56;97422.84;;;9.80;62.36
6829;BME280;17930;48.592;8.868;2023-04-04T08:10:23;97417.38;;;8.72;63.52
6829;BME280;17930;48.592;8.868;2023-04-04T08:12:49;97417.47;;;9.61;63.22
6829;BME280;17930;48.592;8.868;2023-04-04T08:15:17;97419.41;;;9.75;62.65
6829;BME280;17930;48.592;8.868;2023-04-04T08:17:45;97421.59;;;9.57;63.78
6829;BME280;17930;48.592;8.868;2023-04-04T08:20:12;97410.13;;;10.25;61.16
6829;BME280;17930;48.592;8.868;2023-04-04T08:22:39;97414.91;;;11.23;61.77
6829;BME280;17930;48.592;8.868;2023-04-04T08:25:07;97416.75;;;11.33;58.40
6829;BME280;17930;48.592;8.868;2023-04-04T08:27:34;97409.66;;;11.14;56.99
6829;BME280;17930;48.592;8.868;2023-04-04T08:30:01;97412.53;;;11.17;59.15
6829;BME280;17930;48.592;8.868;2023-04-04T08:32:29;97405.19;;;10.99;58.32
6829;BME280;17930;48.592;8.868;2023-04-04T08:34:57;97402.94;;;11.52;57.52
6829;BME280;17930;48.592;8.868;2023-04-04T08:37:24;97409.94;;;11.12;56.41
6829;BME280;17930;48.592;8.868;2023-04-04T08:39:53;97412.59;;;10.56;56.41
6829;BME280;17930;48.592;8.868;2023-04-04T08:42:20;97411.03;;;9.73;56.40
6829;BME280;17930;48.592;8.868;2023-04-04T08:44:52;97408.78;;;10.22;55.47
6829;BME280;17930;48.592;8.868;2023-04-04T08:47:19;97409.91;;;9.59;60.12
6829;BME280;17930;48.592;8.868;2023-04-04T08:49:48;97401.63;;;10.44;58.91
6829;BME280;17930;48.592;8.868;2023-04-04T08:52:19;97410.91;;;9.89;57.13
6829;BME280;17930;48.592;8.868;2023-04-04T08:54:48;97411.41;;;10.22;56.74
6829;BME280;17930;48.592;8.868;2023-04-04T08:57:16;97412.34;;;10.53;55.18
6829;BME280;17930;48.592;8.868;2023-04-04T08:59:43;97404.69;;;11.02;56.58
6829;BME280;17930;48.592;8.868;2023-04-04T09:02:21;97409.91;;;11.07;55.04
6829;BME280;17930;48.592;8.868;2023-04-04T09:04:51;97420.66;;;11.30;55.06
6829;BME280;17930;48.592;8.868;2023-04-04T09:07:20;97425.28;;;10.94;52.25
6829;BME280;17930;48.592;8.868;2023-04-04T09:09:48;97413.66;;;11.71;52.20
6829;BME280;17930;48.592;8.868;2023-04-04T09:12:17;97415.66;;;10.99;52.38
6829;BME280;17930;48.592;8.868;2023-04-04T09:14:45;97419.59;;;11.26;53.49
6829;BME280;17930;48.592;8.868;2023-04-04T09:17:12;97413.97;;;10.64;52.10
6829;BME280;17930;48.592;8.868;2023-04-04T09:19:39;97409.75;;;11.78;52.08
6829;BME280;17930;48.592;8.868;2023-04-04T09:22:06;97412.38;;;11.68;52.74
6829;BME280;17930;48.592;8.868;2023-04-04T09:24:39;97413.06;;;10.43;52.80
6829;BME280;17930;48.592;8.868;2023-04-04T09:27:07;97403.94;;;11.36;52.57
6829;BME280;17930;48.592;8.868;2023-04-04T09:29:36;97412.34;;;12.08;51.76
6829;BME280;17930;48.592;8.868;2023-04-04T09:32:03;97406.66;;;13.27;51.32
6829;BME280;17930;48.592;8.868;2023-04-04T09:34:31;97415.03;;;13.62;49.54
6829;BME280;17930;48.592;8.868;2023-04-04T09:36:57;97415.59;;;13.16;49.17
6829;BME280;17930;48.592;8.868;2023-04-04T09:39:24;97418.41;;;12.71;49.47
6829;BME280;17930;48.592;8.868;2023-04-04T09:41:53;97407.03;;;13.05;49.84
6829;BME280;17930;48.592;8.868;2023-04-04T09:44:19;97411.19;;;13.06;49.75
6829;BME280;17930;48.592;8.868;2023-04-04T09:46:47;97422.88;;;12.71;49.51
6829;BME280;17930;48.592;8.868;2023-04-04T09:49:18;97410.59;;;12.61;49.87
6829;BME280;17930;48.592;8.868;2023-04-04T09:51:47;97413.03;;;13.11;50.88
6829;BME280;17930;48.592;8.868;2023-04-04T09:54:19;97408.75;;;14.47;48.63
6829;BME280;17930;48.592;8.868;2023-04-04T09:56:46;97400.66;;;15.27;48.77
6829;BME280;17930;48.592;8.868;2023-04-04T09:59:15;97416.44;;;16.09;47.14
6829;BME280;17930;48.592;8.868;2023-04-04T10:01:42;97424.34;;;14.62;46.48
6829;BME280;17930;48.592;8.868;2023-04-04T10:04:10;97418.94;;;13.97;46.47
6829;BME280;17930;48.592;8.868;2023-04-04T10:06:36;97417.88;;;14.73;47.08
6829;BME280;17930;48.592;8.868;2023-04-04T10:09:06;97410.56;;;14.70;46.75
6829;BME280;17930;48.592;8.868;2023-04-04T10:11:34;97412.88;;;14.77;45.67
6829;BME280;17930;48.592;8.868;2023-04-04T10:14:02;97412.72;;;15.46;45.31
6829;BME280;17930;48.592;8.868;2023-04-04T10:16:32;97413.53;;;13.84;46.92
6829;BME280;17930;48.592;8.868;2023-04-04T10:19:03;97407.53;;;13.50;46.99
6829;BME280;17930;48.592;8.868;2023-04-04T10:21:32;97406.09;;;13.96;46.63
6829;BME280;17930;48.592;8.868;2023-04-04T10:23:59;97399.38;;;15.25;46.34
6829;BME280;17930;48.592;8.868;2023-04-04T10:26:33;97411.44;;;15.62;44.73
6829;BME280;17930;48.592;8.868;2023-04-04T10:28:59;97414.84;;;15.44;43.63
6829;BME280;17930;48.592;8.868;2023-04-04T10:31:27;97409.06;;;14.87;44.60
6829;BME280;17930;48.592;8.868;2023-04-04T10:34:08;97404.84;;;15.28;45.36
6829;BME280;17930;48.592;8.868;2023-04-04T10:36:41;97408.41;;;15.19;45.21
6829;BME280;17930;48.592;8.868;2023-04-04T10:39:13;97396.06;;;14.96;46.46
6829;BME280;17930;48.592;8.868;2023-04-04T10:41:41;97392.78;;;14.85;43.66
6829;BME280;17930;48.592;8.868;2023-04-04T10:44:16;97396.25;;;14.39;45.73
6829;BME280;17930;48.592;8.868;2023-04-04T10:46:46;97405.63;;;13.89;45.50
6829;BME280;17930;48.592;8.868;2023-04-04T10:49:15;97385.81;;;14.06;46.24
6829;BME280;17930;48.592;8.868;2023-04-04T10:51:42;97396.13;;;15.33;45.50
6829;BME280;17930;48.592;8.868;2023-04-04T10:54:10;97402.53;;;16.22;43.08
6829;BME280;17930;48.592;8.868;2023-04-04T10:56:37;97407.16;;;15.66;42.91
6829;BME280;17930;48.592;8.868;2023-04-04T10:59:12;97402.25;;;14.63;43.68
6829;BME280;17930;48.592;8.868;2023-04-04T11:01:49;97380.88;;;15.30;44.08
6829;BME280;17930;48.592;8.868;2023-04-04T11:04:28;97381.38;;;16.27;44.46
6829;BME280;17930;48.592;8.868;2023-04-04T11:07:12;97391.38;;;15.98;42.52
6829;BME280;17930;48.592;8.868;2023-04-04T11:09:46;97392.56;;;15.24;43.45
6829;BME280;17930;48.592;8.868;2023-04-04T11:12:13;97382.09;;;15.00;43.09
6829;BME280;17930;48.592;8.868;2023-04-04T11:14:53;97382.47;;;15.81;43.05
6829;BME280;17930;48.592;8.868;2023-04-04T11:17:39;97373.66;;;16.17;41.80
6829;BME280;17930;48.592;8.868;2023-04-04T11:20:08;97379.75;;;15.86;41.73
6829;BME280;17930;48.592;8.868;2023-04-04T11:22:35;97377.09;;;16.31;42.07
6829;BME280;17930;48.592;8.868;2023-04-04T11:28:24;97374.28;;;15.82;41.51
6829;BME280;17930;48.592;8.868;2023-04-04T11:31:22;97379.44;;;15.87;42.18
6829;BME280;17930;48.592;8.868;2023-04-04T11:33:57;97369.47;;;15.71;42.62
6829;BME280;17930;48.592;8.868;2023-04-04T11:36:53;97372.22;;;16.24;40.34
6829;BME280;17930;48.592;8.868;2023-04-04T11:39:25;97382.06;;;17.34;39.77
6829;BME280;17930;48.592;8.868;2023-04-04T11:41:53;97378.16;;;15.85;40.58
6829;BME280;17930;48.592;8.868;2023-04-04T11:44:23;97378.84;;;16.22;39.84
6829;BME280;17930;48.592;8.868;2023-04-04T11:46:54;97380.63;;;16.40;39.09
6829;BME280;17930;48.592;8.868;2023-04-04T11:49:24;97374.78;;;15.52;40.59
6829;BME280;17930;48.592;8.868;2023-04-04T11:51:54;97364.34;;;15.79;41.77
6829;BME280;17930;48.592;8.868;2023-04-04T11:54:22;97374.88;;;14.69;40.74
6829;BME280;17930;48.592;8.868;2023-04-04T11:56:49;97362.84;;;15.05;42.21
6829;BME280;17930;48.592;8.868;2023-04-04T11:59:17;97365.72;;;15.58;40.79
6829;BME280;17930;48.592;8.868;2023-04-04T12:01:44;97356.38;;;15.52;41.88
6829;BME280;17930;48.592;8.868;2023-04-04T12:04:13;97351.91;;;15.35;42.38
6829;BME280;17930;48.592;8.868;2023-04-04T12:06:41;97343.13;;;15.89;42.45
6829;BME280;17930;48.592;8.868;2023-04-04T12:09:13;97348.19;;;15.54;41.49
6829;BME280;17930;48.592;8.868;2023-04-04T12:11:41;97348.13;;;15.40;42.53
6829;BME280;17930;48.592;8.868;2023-04-04T12:14:14;97350.25;;;15.57;42.16
6829;BME280;17930;48.592;8.868;2023-04-04T12:16:42;97342.81;;;15.45;42.48
6829;BME280;17930;48.592;8.868;2023-04-04T12:19:08;97350.28;;;15.70;42.54
6829;BME280;17930;48.592;8.868;2023-04-04T12:21:35;97345.09;;;16.64;41.63
6829;BME280;17930;48.592;8.868;2023-04-04T12:24:02;97345.25;;;17.73;41.00
6829;BME280;17930;48.592;8.868;2023-04-04T12:26:30;97348.81;;;16.63;40.00
6829;BME280;17930;48.592;8.868;2023-04-04T12:28:58;97337.22;;;16.24;40.48
6829;BME280;17930;48.592;8.868;2023-04-04T12:31:25;97329.41;;;14.92;42.39
6829;BME280;17930;48.592;8.868;2023-04-04T12:33:52;97317.63;;;15.71;42.56
6829;BME280;17930;48.592;8.868;2023-04-04T12:36:24;97320.13;;;16.08;43.07
6829;BME280;17930;48.592;8.868;2023-04-04T12:38:58;97322.41;;;16.28;42.07
6829;BME280;17930;48.592;8.868;2023-04-04T12:41:25;97329.69;;;16.17;42.02
6829;BME280;17930;48.592;8.868;2023-04-04T12:44:00;97336.47;;;14.73;42.45
6829;BME280;17930;48.592;8.868;2023-04-04T12:46:34;97332.19;;;13.89;44.33
6829;BME280;17930;48.592;8.868;2023-04-04T12:49:04;97323.41;;;14.68;43.54
6829;BME280;17930;48.592;8.868;2023-04-04T12:51:34;97329.16;;;15.07;42.59
6829;BME280;17930;48.592;8.868;2023-04-04T12:54:05;97324.72;;;15.26;41.89
6829;BME280;17930;48.592;8.868;2023-04-04T12:56:33;97319.56;;;16.38;42.21
6829;BME280;17930;48.592;8.868;2023-04-04T12:59:02;97309.69;;;17.05;41.76
6829;BME280;17930;48.592;8.868;2023-04-04T13:01:30;97325.31;;;17.37;40.31
6829;BME280;17930;48.592;8.868;2023-04-04T13:04:01;97320.69;;;15.78;41.63
6829;BME280;17930;48.592;8.868;2023-04-04T13:06:30;97307.84;;;15.27;42.07
6829;BME280;17930;48.592;8.868;2023-04-04T13:08:57;97310.59;;;16.12;41.42
6829;BME280;17930;48.592;8.868;2023-04-04T13:11:24;97305.22;;;16.92;40.86
6829;BME280;17930;48.592;8.868;2023-04-04T13:14:02;97321.41;;;17.34;39.96
6829;BME280;17930;48.592;8.868;2023-04-04T13:16:31;97311.38;;;16.39;40.58